Lloyd, Montana
Current Conditions -  °F | °C
As of 6:53 AM on Saturday 25 Oct 2014 (Local Time) from KHVR Reporting Station
Clear Clear  
Wind Chill: 34°   Ceiling: Unl
Heat Index: 40°   Visibility: 10mi
Dew Point: 32°   Wind: 9mph
Humidity: 73%   Direction: 60°ENE
Pressure: 30.02"   Gusts: NA
Location:  48.29°N, 109.36°W
Report Text: KHVR 251253Z AUTO 06008KT 10SM CLR 04/00 A3002 RMK AO2 SLP179 T00440000
Loading
Personal Weather Stations






























Interactive Weather Map
Tropical Storm Tracking
New forecast layout! Learn more

10-Day Weather Forecast

Advertisements
Track Severe Weather on mobile